sensor_id;sensor_type;location;lat;lon;timestamp;P1;durP1;ratioP1;P2;durP2;ratioP2
26391;SDS011;14572;43.120;1.178;2023-04-03T05:32:37;10.32;;;3.72;;
26391;SDS011;14572;43.120;1.178;2023-04-03T05:35:04;4.85;;;3.30;;
26391;SDS011;14572;43.120;1.178;2023-04-03T05:37:32;8.48;;;3.15;;
26391;SDS011;14572;43.120;1.178;2023-04-03T05:39:59;6.45;;;3.10;;
26391;SDS011;14572;43.120;1.178;2023-04-03T05:42:27;8.35;;;3.13;;
26391;SDS011;14572;43.120;1.178;2023-04-03T05:44:55;7.30;;;3.10;;
26391;SDS011;14572;43.120;1.178;2023-04-03T05:47:27;6.45;;;3.15;;
26391;SDS011;14572;43.120;1.178;2023-04-03T05:49:57;7.10;;;3.33;;
26391;SDS011;14572;43.120;1.178;2023-04-03T05:52:25;7.70;;;3.30;;
26391;SDS011;14572;43.120;1.178;2023-04-03T05:54:54;7.82;;;3.35;;
26391;SDS011;14572;43.120;1.178;2023-04-03T05:57:21;8.15;;;3.58;;
26391;SDS011;14572;43.120;1.178;2023-04-03T05:59:48;12.77;;;3.55;;
26391;SDS011;14572;43.120;1.178;2023-04-03T06:02:16;7.07;;;4.05;;
26391;SDS011;14572;43.120;1.178;2023-04-03T06:04:45;15.30;;;3.88;;
26391;SDS011;14572;43.120;1.178;2023-04-03T06:07:14;6.13;;;3.67;;
26391;SDS011;14572;43.120;1.178;2023-04-03T06:09:42;8.73;;;3.85;;
26391;SDS011;14572;43.120;1.178;2023-04-03T06:12:10;6.93;;;3.95;;
26391;SDS011;14572;43.120;1.178;2023-04-03T06:14:37;10.00;;;3.97;;
26391;SDS011;14572;43.120;1.178;2023-04-03T06:17:04;7.65;;;3.72;;
26391;SDS011;14572;43.120;1.178;2023-04-03T06:19:33;13.00;;;3.45;;
26391;SDS011;14572;43.120;1.178;2023-04-03T06:22:00;9.10;;;4.15;;
26391;SDS011;14572;43.120;1.178;2023-04-03T06:24:29;8.25;;;3.55;;
26391;SDS011;14572;43.120;1.178;2023-04-03T06:26:57;6.72;;;4.10;;
26391;SDS011;14572;43.120;1.178;2023-04-03T06:29:24;12.52;;;4.38;;
26391;SDS011;14572;43.120;1.178;2023-04-03T06:31:51;6.85;;;3.75;;
26391;SDS011;14572;43.120;1.178;2023-04-03T06:34:18;8.80;;;4.22;;
26391;SDS011;14572;43.120;1.178;2023-04-03T06:36:46;7.78;;;3.80;;
26391;SDS011;14572;43.120;1.178;2023-04-03T06:39:14;7.47;;;3.78;;
26391;SDS011;14572;43.120;1.178;2023-04-03T06:41:44;5.47;;;3.80;;
26391;SDS011;14572;43.120;1.178;2023-04-03T06:44:11;6.20;;;3.65;;
26391;SDS011;14572;43.120;1.178;2023-04-03T06:46:40;7.82;;;3.95;;
26391;SDS011;14572;43.120;1.178;2023-04-03T06:49:08;9.40;;;4.10;;
26391;SDS011;14572;43.120;1.178;2023-04-03T06:51:35;6.72;;;3.95;;
26391;SDS011;14572;43.120;1.178;2023-04-03T06:54:04;7.18;;;4.28;;
26391;SDS011;14572;43.120;1.178;2023-04-03T06:56:33;7.22;;;3.72;;
26391;SDS011;14572;43.120;1.178;2023-04-03T06:59:02;6.68;;;3.53;;
26391;SDS011;14572;43.120;1.178;2023-04-03T07:01:29;6.43;;;3.28;;
26391;SDS011;14572;43.120;1.178;2023-04-03T07:03:56;7.80;;;3.92;;
26391;SDS011;14572;43.120;1.178;2023-04-03T07:06:23;10.60;;;4.47;;
26391;SDS011;14572;43.120;1.178;2023-04-03T07:08:52;8.88;;;4.47;;
26391;SDS011;14572;43.120;1.178;2023-04-03T07:11:19;10.63;;;5.13;;
26391;SDS011;14572;43.120;1.178;2023-04-03T07:13:46;4.88;;;3.30;;
26391;SDS011;14572;43.120;1.178;2023-04-03T07:16:15;9.07;;;3.72;;
26391;SDS011;14572;43.120;1.178;2023-04-03T07:18:42;7.10;;;3.15;;
26391;SDS011;14572;43.120;1.178;2023-04-03T07:21:09;5.22;;;3.50;;
26391;SDS011;14572;43.120;1.178;2023-04-03T07:23:36;7.88;;;3.10;;
26391;SDS011;14572;43.120;1.178;2023-04-03T07:26:03;9.27;;;3.30;;
26391;SDS011;14572;43.120;1.178;2023-04-03T07:28:31;3.92;;;2.78;;
26391;SDS011;14572;43.120;1.178;2023-04-03T07:30:59;7.50;;;2.97;;
26391;SDS011;14572;43.120;1.178;2023-04-03T07:33:29;7.28;;;3.55;;
26391;SDS011;14572;43.120;1.178;2023-04-03T07:35:56;8.80;;;3.70;;
26391;SDS011;14572;43.120;1.178;2023-04-03T07:38:23;6.63;;;3.40;;
26391;SDS011;14572;43.120;1.178;2023-04-03T07:40:50;10.02;;;3.97;;
26391;SDS011;14572;43.120;1.178;2023-04-03T07:43:19;6.88;;;3.42;;
26391;SDS011;14572;43.120;1.178;2023-04-03T07:45:47;8.30;;;3.00;;
26391;SDS011;14572;43.120;1.178;2023-04-03T07:48:15;5.10;;;2.40;;
26391;SDS011;14572;43.120;1.178;2023-04-03T07:50:44;7.97;;;2.15;;
26391;SDS011;14572;43.120;1.178;2023-04-03T07:53:11;6.40;;;2.42;;
26391;SDS011;14572;43.120;1.178;2023-04-03T07:55:39;4.47;;;2.63;;
26391;SDS011;14572;43.120;1.178;2023-04-03T07:58:09;3.85;;;2.35;;
26391;SDS011;14572;43.120;1.178;2023-04-03T08:00:37;4.65;;;2.70;;
26391;SDS011;14572;43.120;1.178;2023-04-03T08:03:04;6.65;;;2.70;;
26391;SDS011;14572;43.120;1.178;2023-04-03T08:05:31;5.53;;;2.55;;
26391;SDS011;14572;43.120;1.178;2023-04-03T08:08:03;5.65;;;3.05;;
26391;SDS011;14572;43.120;1.178;2023-04-03T08:10:30;4.40;;;2.53;;
26391;SDS011;14572;43.120;1.178;2023-04-03T08:12:57;5.78;;;3.28;;
26391;SDS011;14572;43.120;1.178;2023-04-03T08:15:24;5.25;;;2.90;;
26391;SDS011;14572;43.120;1.178;2023-04-03T08:17:52;5.43;;;2.65;;
26391;SDS011;14572;43.120;1.178;2023-04-03T08:20:19;4.82;;;3.13;;
26391;SDS011;14572;43.120;1.178;2023-04-03T08:22:46;3.83;;;2.97;;
26391;SDS011;14572;43.120;1.178;2023-04-03T08:25:15;10.65;;;2.97;;
26391;SDS011;14572;43.120;1.178;2023-04-03T08:27:42;4.65;;;3.00;;
26391;SDS011;14572;43.120;1.178;2023-04-03T08:30:10;4.72;;;2.45;;
26391;SDS011;14572;43.120;1.178;2023-04-03T08:32:38;5.38;;;2.50;;
26391;SDS011;14572;43.120;1.178;2023-04-03T08:35:07;3.95;;;2.33;;
26391;SDS011;14572;43.120;1.178;2023-04-03T08:37:35;3.85;;;2.22;;
26391;SDS011;14572;43.120;1.178;2023-04-03T08:40:02;5.43;;;3.00;;
26391;SDS011;14572;43.120;1.178;2023-04-03T08:42:36;5.90;;;2.40;;
26391;SDS011;14572;43.120;1.178;2023-04-03T08:45:09;9.38;;;2.78;;
26391;SDS011;14572;43.120;1.178;2023-04-03T08:47:40;4.30;;;2.95;;
26391;SDS011;14572;43.120;1.178;2023-04-03T08:50:11;4.82;;;3.28;;
26391;SDS011;14572;43.120;1.178;2023-04-03T08:52:40;9.10;;;3.00;;
26391;SDS011;14572;43.120;1.178;2023-04-03T08:55:13;5.85;;;2.95;;
26391;SDS011;14572;43.120;1.178;2023-04-03T08:57:47;4.70;;;3.33;;
26391;SDS011;14572;43.120;1.178;2023-04-03T09:00:18;4.85;;;3.25;;
26391;SDS011;14572;43.120;1.178;2023-04-03T09:02:47;5.55;;;2.88;;
26391;SDS011;14572;43.120;1.178;2023-04-03T09:05:16;7.85;;;3.17;;
26391;SDS011;14572;43.120;1.178;2023-04-03T09:07:46;5.65;;;2.83;;
26391;SDS011;14572;43.120;1.178;2023-04-03T09:10:15;6.20;;;3.20;;
26391;SDS011;14572;43.120;1.178;2023-04-03T09:12:44;5.05;;;3.00;;
26391;SDS011;14572;43.120;1.178;2023-04-03T09:15:19;5.38;;;2.97;;
26391;SDS011;14572;43.120;1.178;2023-04-03T09:17:52;6.15;;;2.95;;
26391;SDS011;14572;43.120;1.178;2023-04-03T09:20:24;5.45;;;2.67;;
26391;SDS011;14572;43.120;1.178;2023-04-03T09:22:55;6.03;;;2.92;;
26391;SDS011;14572;43.120;1.178;2023-04-03T09:25:22;3.63;;;2.78;;
26391;SDS011;14572;43.120;1.178;2023-04-03T09:27:53;3.85;;;2.28;;
26391;SDS011;14572;43.120;1.178;2023-04-03T09:30:21;3.20;;;2.70;;
26391;SDS011;14572;43.120;1.178;2023-04-03T09:32:50;2.78;;;2.30;;
26391;SDS011;14572;43.120;1.178;2023-04-03T09:35:19;6.35;;;2.83;;
26391;SDS011;14572;43.120;1.178;2023-04-03T09:37:48;5.68;;;2.47;;
26391;SDS011;14572;43.120;1.178;2023-04-03T09:40:28;6.40;;;2.83;;
26391;SDS011;14572;43.120;1.178;2023-04-03T09:43:01;3.70;;;2.58;;
26391;SDS011;14572;43.120;1.178;2023-04-03T09:45:35;6.90;;;2.78;;
26391;SDS011;14572;43.120;1.178;2023-04-03T09:48:06;3.38;;;2.50;;
26391;SDS011;14572;43.120;1.178;2023-04-03T09:50:34;4.60;;;2.60;;
26391;SDS011;14572;43.120;1.178;2023-04-03T09:53:06;3.22;;;2.13;;
26391;SDS011;14572;43.120;1.178;2023-04-03T09:55:41;5.28;;;2.35;;
26391;SDS011;14572;43.120;1.178;2023-04-03T09:58:24;5.88;;;2.45;;
26391;SDS011;14572;43.120;1.178;2023-04-03T10:00:57;5.97;;;2.30;;
26391;SDS011;14572;43.120;1.178;2023-04-03T10:03:26;4.05;;;1.95;;
26391;SDS011;14572;43.120;1.178;2023-04-03T10:05:55;4.03;;;1.85;;
26391;SDS011;14572;43.120;1.178;2023-04-03T10:08:25;5.03;;;2.22;;
26391;SDS011;14572;43.120;1.178;2023-04-03T10:11:10;3.10;;;2.05;;
26391;SDS011;14572;43.120;1.178;2023-04-03T10:14:10;2.30;;;1.95;;
26391;SDS011;14572;43.120;1.178;2023-04-03T10:16:44;2.80;;;1.95;;
26391;SDS011;14572;43.120;1.178;2023-04-03T10:19:23;3.28;;;1.80;;
26391;SDS011;14572;43.120;1.178;2023-04-03T10:22:00;3.65;;;2.65;;
26391;SDS011;14572;43.120;1.178;2023-04-03T10:24:33;3.00;;;1.73;;
26391;SDS011;14572;43.120;1.178;2023-04-03T10:27:04;4.35;;;2.03;;
26391;SDS011;14572;43.120;1.178;2023-04-03T10:29:50;4.68;;;2.25;;
26391;SDS011;14572;43.120;1.178;2023-04-03T10:32:27;4.07;;;2.10;;
26391;SDS011;14572;43.120;1.178;2023-04-03T10:35:15;4.25;;;2.22;;
26391;SDS011;14572;43.120;1.178;2023-04-03T10:37:50;3.08;;;2.15;;
26391;SDS011;14572;43.120;1.178;2023-04-03T10:40:24;5.28;;;2.35;;
26391;SDS011;14572;43.120;1.178;2023-04-03T10:42:59;4.45;;;2.83;;
26391;SDS011;14572;43.120;1.178;2023-04-03T10:45:35;4.63;;;3.00;;
26391;SDS011;14572;43.120;1.178;2023-04-03T10:48:18;5.88;;;3.58;;
26391;SDS011;14572;43.120;1.178;2023-04-03T10:50:58;4.22;;;2.63;;
26391;SDS011;14572;43.120;1.178;2023-04-03T10:53:30;3.05;;;2.17;;
26391;SDS011;14572;43.120;1.178;2023-04-03T10:56:02;3.03;;;2.10;;
26391;SDS011;14572;43.120;1.178;2023-04-03T10:58:32;3.67;;;1.45;;
26391;SDS011;14572;43.120;1.178;2023-04-03T11:01:03;2.70;;;1.50;;
26391;SDS011;14572;43.120;1.178;2023-04-03T11:03:35;3.05;;;1.40;;
26391;SDS011;14572;43.120;1.178;2023-04-03T11:06:05;3.72;;;2.08;;
26391;SDS011;14572;43.120;1.178;2023-04-03T11:08:35;3.78;;;1.92;;
26391;SDS011;14572;43.120;1.178;2023-04-03T11:11:06;3.80;;;2.75;;
26391;SDS011;14572;43.120;1.178;2023-04-03T11:13:37;4.45;;;2.03;;
26391;SDS011;14572;43.120;1.178;2023-04-03T11:16:09;2.70;;;2.30;;
26391;SDS011;14572;43.120;1.178;2023-04-03T11:18:41;4.00;;;2.25;;
26391;SDS011;14572;43.120;1.178;2023-04-03T11:21:11;2.80;;;1.80;;
26391;SDS011;14572;43.120;1.178;2023-04-03T11:23:43;1.60;;;1.30;;
26391;SDS011;14572;43.120;1.178;2023-04-03T11:26:11;2.33;;;1.23;;
26391;SDS011;14572;43.120;1.178;2023-04-03T11:28:40;1.60;;;1.10;;
26391;SDS011;14572;43.120;1.178;2023-04-03T11:34:05;1.90;;;1.00;;
26391;SDS011;14572;43.120;1.178;2023-04-03T11:36:39;2.17;;;1.08;;
26391;SDS011;14572;43.120;1.178;2023-04-03T11:39:10;2.53;;;1.13;;
26391;SDS011;14572;43.120;1.178;2023-04-03T11:41:45;3.53;;;1.00;;
26391;SDS011;14572;43.120;1.178;2023-04-03T11:44:26;1.58;;;0.77;;
26391;SDS011;14572;43.120;1.178;2023-04-03T11:46:57;2.40;;;1.40;;
26391;SDS011;14572;43.120;1.178;2023-04-03T11:58:27;1.67;;;0.98;;
26391;SDS011;14572;43.120;1.178;2023-04-03T12:00:59;1.70;;;1.08;;
26391;SDS011;14572;43.120;1.178;2023-04-03T12:12:42;1.25;;;0.95;;
26391;SDS011;14572;43.120;1.178;2023-04-03T12:15:17;1.58;;;1.08;;
26391;SDS011;14572;43.120;1.178;2023-04-03T12:17:53;2.28;;;1.00;;
26391;SDS011;14572;43.120;1.178;2023-04-03T12:23:27;1.83;;;1.20;;
26391;SDS011;14572;43.120;1.178;2023-04-03T12:26:01;2.05;;;1.20;;
26391;SDS011;14572;43.120;1.178;2023-04-03T12:28:39;1.67;;;1.35;;
26391;SDS011;14572;43.120;1.178;2023-04-03T12:31:06;2.58;;;1.17;;
26391;SDS011;14572;43.120;1.178;2023-04-03T12:33:37;4.10;;;1.10;;
26391;SDS011;14572;43.120;1.178;2023-04-03T12:36:11;2.58;;;1.50;;
26391;SDS011;14572;43.120;1.178;2023-04-03T12:38:49;1.45;;;1.10;;
26391;SDS011;14572;43.120;1.178;2023-04-03T12:41:27;1.30;;;1.20;;
26391;SDS011;14572;43.120;1.178;2023-04-03T12:44:06;2.25;;;1.10;;
26391;SDS011;14572;43.120;1.178;2023-04-03T12:46:47;0.95;;;0.88;;
26391;SDS011;14572;43.120;1.178;2023-04-03T12:49:22;2.67;;;0.85;;
26391;SDS011;14572;43.120;1.178;2023-04-03T12:51:56;1.50;;;0.88;;
26391;SDS011;14572;43.120;1.178;2023-04-03T12:54:29;7.28;;;1.00;;
26391;SDS011;14572;43.120;1.178;2023-04-03T12:59:42;3.80;;;1.10;;
26391;SDS011;14572;43.120;1.178;2023-04-03T13:02:17;1.08;;;0.77;;
26391;SDS011;14572;43.120;1.178;2023-04-03T13:04:48;1.55;;;1.13;;
26391;SDS011;14572;43.120;1.178;2023-04-03T13:07:23;2.13;;;0.90;;
26391;SDS011;14572;43.120;1.178;2023-04-03T13:10:02;1.33;;;0.70;;
26391;SDS011;14572;43.120;1.178;2023-04-03T13:12:45;1.00;;;0.90;;
26391;SDS011;14572;43.120;1.178;2023-04-03T13:15:14;2.00;;;0.95;;
26391;SDS011;14572;43.120;1.178;2023-04-03T13:17:44;1.08;;;0.90;;
26391;SDS011;14572;43.120;1.178;2023-04-03T13:20:16;1.30;;;0.63;;
26391;SDS011;14572;43.120;1.178;2023-04-03T13:22:47;2.00;;;0.90;;
26391;SDS011;14572;43.120;1.178;2023-04-03T13:25:17;1.05;;;0.93;;
26391;SDS011;14572;43.120;1.178;2023-04-03T13:27:46;1.88;;;0.90;;
26391;SDS011;14572;43.120;1.178;2023-04-03T13:30:21;2.35;;;0.75;;
26391;SDS011;14572;43.120;1.178;2023-04-03T13:32:51;2.55;;;1.30;;
26391;SDS011;14572;43.120;1.178;2023-04-03T13:35:26;1.52;;;1.05;;
26391;SDS011;14572;43.120;1.178;2023-04-03T13:37:59;1.05;;;0.85;;
26391;SDS011;14572;43.120;1.178;2023-04-03T13:40:29;1.00;;;0.90;;
26391;SDS011;14572;43.120;1.178;2023-04-03T13:43:00;1.90;;;0.90;;
26391;SDS011;14572;43.120;1.178;2023-04-03T13:45:29;1.52;;;0.90;;
26391;SDS011;14572;43.120;1.178;2023-04-03T13:48:07;1.17;;;0.90;;
26391;SDS011;14572;43.120;1.178;2023-04-03T13:50:51;1.20;;;0.80;;
26391;SDS011;14572;43.120;1.178;2023-04-03T13:53:20;2.22;;;0.93;;
26391;SDS011;14572;43.120;1.178;2023-04-03T13:55:57;2.03;;;0.80;;
26391;SDS011;14572;43.120;1.178;2023-04-03T13:58:26;0.93;;;0.70;;
26391;SDS011;14572;43.120;1.178;2023-04-03T14:00:55;3.20;;;1.00;;
26391;SDS011;14572;43.120;1.178;2023-04-03T14:03:29;1.65;;;1.20;;
26391;SDS011;14572;43.120;1.178;2023-04-03T14:05:57;2.25;;;1.17;;
26391;SDS011;14572;43.120;1.178;2023-04-03T14:08:25;1.33;;;0.93;;
26391;SDS011;14572;43.120;1.178;2023-04-03T14:10:52;1.92;;;1.00;;
26391;SDS011;14572;43.120;1.178;2023-04-03T14:13:21;1.83;;;0.70;;
26391;SDS011;14572;43.120;1.178;2023-04-03T14:15:48;4.95;;;1.10;;
26391;SDS011;14572;43.120;1.178;2023-04-03T14:18:20;1.65;;;0.88;;
26391;SDS011;14572;43.120;1.178;2023-04-03T14:20:49;2.78;;;1.10;;
26391;SDS011;14572;43.120;1.178;2023-04-03T14:23:16;2.67;;;1.00;;
26391;SDS011;14572;43.120;1.178;2023-04-03T14:25:43;1.00;;;0.82;;
26391;SDS011;14572;43.120;1.178;2023-04-03T14:28:14;1.13;;;0.90;;
26391;SDS011;14572;43.120;1.178;2023-04-03T14:30:45;2.50;;;0.88;;
26391;SDS011;14572;43.120;1.178;2023-04-03T14:33:14;1.38;;;1.05;;
26391;SDS011;14572;43.120;1.178;2023-04-03T14:35:42;1.75;;;1.10;;
26391;SDS011;14572;43.120;1.178;2023-04-03T14:38:20;3.72;;;1.33;;
26391;SDS011;14572;43.120;1.178;2023-04-03T14:40:50;5.82;;;2.15;;
26391;SDS011;14572;43.120;1.178;2023-04-03T14:43:17;6.45;;;1.30;;
26391;SDS011;14572;43.120;1.178;2023-04-03T14:45:47;2.58;;;1.02;;
26391;SDS011;14572;43.120;1.178;2023-04-03T14:48:16;3.75;;;1.40;;
26391;SDS011;14572;43.120;1.178;2023-04-03T14:50:45;4.57;;;1.55;;
26391;SDS011;14572;43.120;1.178;2023-04-03T14:53:13;2.42;;;1.73;;
26391;SDS011;14572;43.120;1.178;2023-04-03T14:55:41;3.83;;;1.38;;
26391;SDS011;14572;43.120;1.178;2023-04-03T14:58:12;2.70;;;1.23;;
26391;SDS011;14572;43.120;1.178;2023-04-03T15:00:40;2.33;;;1.40;;
26391;SDS011;14572;43.120;1.178;2023-04-03T15:03:11;3.83;;;1.23;;
26391;SDS011;14572;43.120;1.178;2023-04-03T15:05:40;3.75;;;1.38;;
26391;SDS011;14572;43.120;1.178;2023-04-03T15:08:10;2.80;;;1.30;;
26391;SDS011;14572;43.120;1.178;2023-04-03T15:10:43;2.22;;;1.10;;
26391;SDS011;14572;43.120;1.178;2023-04-03T15:13:10;1.70;;;1.00;;
26391;SDS011;14572;43.120;1.178;2023-04-03T15:15:38;2.17;;;1.00;;
26391;SDS011;14572;43.120;1.178;2023-04-03T15:18:06;2.58;;;0.85;;
26391;SDS011;14572;43.120;1.178;2023-04-03T15:20:35;2.03;;;1.30;;
26391;SDS011;14572;43.120;1.178;2023-04-03T15:23:02;1.73;;;1.13;;
26391;SDS011;14572;43.120;1.178;2023-04-03T15:25:30;0.80;;;0.68;;
26391;SDS011;14572;43.120;1.178;2023-04-03T15:27:58;1.67;;;0.95;;
26391;SDS011;14572;43.120;1.178;2023-04-03T15:30:25;3.78;;;0.80;;
26391;SDS011;14572;43.120;1.178;2023-04-03T15:32:52;1.25;;;0.77;;
26391;SDS011;14572;43.120;1.178;2023-04-03T15:35:19;1.27;;;0.80;;
26391;SDS011;14572;43.120;1.178;2023-04-03T15:37:48;1.00;;;0.65;;
26391;SDS011;14572;43.120;1.178;2023-04-03T15:40:16;1.17;;;0.60;;
26391;SDS011;14572;43.120;1.178;2023-04-03T15:42:43;1.08;;;0.73;;
26391;SDS011;14572;43.120;1.178;2023-04-03T15:45:10;1.55;;;0.80;;
26391;SDS011;14572;43.120;1.178;2023-04-03T15:47:37;1.30;;;0.63;;
26391;SDS011;14572;43.120;1.178;2023-04-03T15:50:05;0.93;;;0.75;;
26391;SDS011;14572;43.120;1.178;2023-04-03T15:52:33;3.35;;;1.10;;
26391;SDS011;14572;43.120;1.178;2023-04-03T15:55:02;1.23;;;0.60;;
26391;SDS011;14572;43.120;1.178;2023-04-03T15:57:29;0.60;;;0.52;;
26391;SDS011;14572;43.120;1.178;2023-04-03T15:59:56;1.88;;;0.80;;
26391;SDS011;14572;43.120;1.178;2023-04-03T16:02:23;0.60;;;0.60;;
26391;SDS011;14572;43.120;1.178;2023-04-03T16:04:53;1.50;;;0.75;;
26391;SDS011;14572;43.120;1.178;2023-04-03T16:07:20;1.70;;;1.00;;
26391;SDS011;14572;43.120;1.178;2023-04-03T16:09:47;2.65;;;1.02;;
26391;SDS011;14572;43.120;1.178;2023-04-03T16:12:16;2.20;;;1.10;;
26391;SDS011;14572;43.120;1.178;2023-04-03T16:14:43;2.05;;;0.82;;
26391;SDS011;14572;43.120;1.178;2023-04-03T16:17:10;0.90;;;0.73;;
26391;SDS011;14572;43.120;1.178;2023-04-03T16:19:37;1.50;;;0.82;;
26391;SDS011;14572;43.120;1.178;2023-04-03T16:22:04;1.30;;;0.70;;
26391;SDS011;14572;43.120;1.178;2023-04-03T16:24:31;0.85;;;0.63;;
26391;SDS011;14572;43.120;1.178;2023-04-03T16:27:00;0.75;;;0.60;;
26391;SDS011;14572;43.120;1.178;2023-04-03T16:29:29;1.27;;;0.60;;
26391;SDS011;14572;43.120;1.178;2023-04-03T16:31:56;1.67;;;0.65;;
26391;SDS011;14572;43.120;1.178;2023-04-03T16:34:24;3.13;;;0.73;;
26391;SDS011;14572;43.120;1.178;2023-04-03T16:36:52;1.55;;;0.90;;
26391;SDS011;14572;43.120;1.178;2023-04-03T16:39:19;1.00;;;0.65;;
26391;SDS011;14572;43.120;1.178;2023-04-03T16:41:46;3.10;;;1.00;;
26391;SDS011;14572;43.120;1.178;2023-04-03T16:44:13;1.40;;;0.68;;
26391;SDS011;14572;43.120;1.178;2023-04-03T16:46:41;1.33;;;0.70;;
26391;SDS011;14572;43.120;1.178;2023-04-03T16:49:08;1.65;;;0.80;;
26391;SDS011;14572;43.120;1.178;2023-04-03T16:51:35;2.13;;;0.90;;
26391;SDS011;14572;43.120;1.178;2023-04-03T16:54:02;0.98;;;0.65;;
26391;SDS011;14572;43.120;1.178;2023-04-03T16:56:29;1.08;;;0.70;;
26391;SDS011;14572;43.120;1.178;2023-04-03T16:58:57;1.13;;;0.98;;
26391;SDS011;14572;43.120;1.178;2023-04-03T17:01:24;1.38;;;0.88;;
26391;SDS011;14572;43.120;1.178;2023-04-03T17:03:52;1.33;;;0.98;;
26391;SDS011;14572;43.120;1.178;2023-04-03T17:06:20;1.38;;;0.80;;
26391;SDS011;14572;43.120;1.178;2023-04-03T17:08:49;4.18;;;0.88;;
26391;SDS011;14572;43.120;1.178;2023-04-03T17:11:17;1.90;;;1.00;;
26391;SDS011;14572;43.120;1.178;2023-04-03T17:13:45;1.40;;;0.73;;
26391;SDS011;14572;43.120;1.178;2023-04-03T17:16:14;3.05;;;0.70;;
26391;SDS011;14572;43.120;1.178;2023-04-03T17:18:42;1.77;;;1.00;;
26391;SDS011;14572;43.120;1.178;2023-04-03T17:21:11;2.97;;;0.75;;
26391;SDS011;14572;43.120;1.178;2023-04-03T17:23:39;2.45;;;0.95;;
26391;SDS011;14572;43.120;1.178;2023-04-03T17:26:08;4.75;;;1.02;;
26391;SDS011;14572;43.120;1.178;2023-04-03T17:28:35;1.33;;;0.80;;
26391;SDS011;14572;43.120;1.178;2023-04-03T17:31:03;1.13;;;0.73;;
26391;SDS011;14572;43.120;1.178;2023-04-03T17:33:30;1.42;;;0.93;;
26391;SDS011;14572;43.120;1.178;2023-04-03T17:35:58;1.77;;;1.10;;
26391;SDS011;14572;43.120;1.178;2023-04-03T17:38:27;1.02;;;0.70;;
26391;SDS011;14572;43.120;1.178;2023-04-03T17:40:55;2.80;;;1.08;;
26391;SDS011;14572;43.120;1.178;2023-04-03T17:43:22;2.47;;;1.00;;
26391;SDS011;14572;43.120;1.178;2023-04-03T17:45:50;1.92;;;0.80;;
26391;SDS011;14572;43.120;1.178;2023-04-03T17:48:17;2.15;;;0.80;;
26391;SDS011;14572;43.120;1.178;2023-04-03T17:50:44;4.72;;;1.10;;
26391;SDS011;14572;43.120;1.178;2023-04-03T17:53:11;4.15;;;0.85;;
26391;SDS011;14572;43.120;1.178;2023-04-03T17:55:40;1.42;;;0.98;;
26391;SDS011;14572;43.120;1.178;2023-04-03T17:58:07;2.97;;;1.00;;
26391;SDS011;14572;43.120;1.178;2023-04-03T18:00:35;2.20;;;1.10;;
26391;SDS011;14572;43.120;1.178;2023-04-03T18:03:02;4.07;;;1.10;;
26391;SDS011;14572;43.120;1.178;2023-04-03T18:05:29;1.65;;;1.05;;
26391;SDS011;14572;43.120;1.178;2023-04-03T18:07:57;1.95;;;1.10;;
26391;SDS011;14572;43.120;1.178;2023-04-03T18:10:25;1.95;;;1.00;;
26391;SDS011;14572;43.120;1.178;2023-04-03T18:12:54;3.30;;;1.20;;
26391;SDS011;14572;43.120;1.178;2023-04-03T18:15:22;4.10;;;1.15;;
26391;SDS011;14572;43.120;1.178;2023-04-03T18:17:50;1.10;;;0.95;;
26391;SDS011;14572;43.120;1.178;2023-04-03T18:20:20;2.75;;;1.10;;
26391;SDS011;14572;43.120;1.178;2023-04-03T18:22:47;3.63;;;1.27;;
26391;SDS011;14572;43.120;1.178;2023-04-03T18:25:15;1.60;;;1.10;;
26391;SDS011;14572;43.120;1.178;2023-04-03T18:27:42;3.60;;;1.20;;
26391;SDS011;14572;43.120;1.178;2023-04-03T18:30:13;3.25;;;1.20;;
26391;SDS011;14572;43.120;1.178;2023-04-03T18:32:41;2.00;;;1.00;;
26391;SDS011;14572;43.120;1.178;2023-04-03T18:35:09;2.88;;;1.10;;
26391;SDS011;14572;43.120;1.178;2023-04-03T18:37:36;1.92;;;1.10;;
26391;SDS011;14572;43.120;1.178;2023-04-03T18:40:03;2.33;;;1.13;;
26391;SDS011;14572;43.120;1.178;2023-04-03T18:42:31;4.38;;;1.33;;
26391;SDS011;14572;43.120;1.178;2023-04-03T18:44:58;3.47;;;1.30;;
26391;SDS011;14572;43.120;1.178;2023-04-03T18:47:29;3.47;;;0.95;;
26391;SDS011;14572;43.120;1.178;2023-04-03T18:49:56;1.20;;;1.10;;
26391;SDS011;14572;43.120;1.178;2023-04-03T18:52:23;2.13;;;1.08;;
26391;SDS011;14572;43.120;1.178;2023-04-03T18:54:50;4.38;;;1.30;;
26391;SDS011;14572;43.120;1.178;2023-04-03T18:57:18;3.55;;;1.40;;
26391;SDS011;14572;43.120;1.178;2023-04-03T18:59:45;1.77;;;1.10;;
26391;SDS011;14572;43.120;1.178;2023-04-03T19:02:12;3.95;;;1.90;;
26391;SDS011;14572;43.120;1.178;2023-04-03T19:04:41;2.25;;;1.25;;
26391;SDS011;14572;43.120;1.178;2023-04-03T19:07:08;2.55;;;1.35;;
26391;SDS011;14572;43.120;1.178;2023-04-03T19:09:35;2.50;;;1.55;;
26391;SDS011;14572;43.120;1.178;2023-04-03T19:12:04;4.00;;;1.48;;
26391;SDS011;14572;43.120;1.178;2023-04-03T19:14:31;1.88;;;1.25;;
26391;SDS011;14572;43.120;1.178;2023-04-03T19:16:58;2.40;;;1.40;;
26391;SDS011;14572;43.120;1.178;2023-04-03T19:19:26;3.42;;;1.40;;
26391;SDS011;14572;43.120;1.178;2023-04-03T19:21:55;1.75;;;1.30;;
26391;SDS011;14572;43.120;1.178;2023-04-03T19:24:22;3.03;;;1.20;;
26391;SDS011;14572;43.120;1.178;2023-04-03T19:26:49;2.55;;;1.25;;
26391;SDS011;14572;43.120;1.178;2023-04-03T19:29:16;4.35;;;1.30;;
26391;SDS011;14572;43.120;1.178;2023-04-03T19:31:43;2.90;;;1.40;;
26391;SDS011;14572;43.120;1.178;2023-04-03T19:34:10;6.85;;;1.27;;
26391;SDS011;14572;43.120;1.178;2023-04-03T19:36:37;4.25;;;1.40;;
26391;SDS011;14572;43.120;1.178;2023-04-03T19:39:06;4.30;;;1.40;;
26391;SDS011;14572;43.120;1.178;2023-04-03T19:41:34;3.70;;;1.40;;
26391;SDS011;14572;43.120;1.178;2023-04-03T19:44:02;3.67;;;1.50;;
26391;SDS011;14572;43.120;1.178;2023-04-03T19:46:29;4.20;;;1.80;;
26391;SDS011;14572;43.120;1.178;2023-04-03T19:48:56;4.13;;;1.80;;
26391;SDS011;14572;43.120;1.178;2023-04-03T19:51:23;2.70;;;1.40;;
26391;SDS011;14572;43.120;1.178;2023-04-03T19:53:51;8.10;;;2.70;;
26391;SDS011;14572;43.120;1.178;2023-04-03T19:56:20;8.05;;;3.85;;
26391;SDS011;14572;43.120;1.178;2023-04-03T19:58:47;8.65;;;3.97;;
26391;SDS011;14572;43.120;1.178;2023-04-03T20:01:18;3.65;;;2.03;;
26391;SDS011;14572;43.120;1.178;2023-04-03T20:03:45;5.47;;;2.15;;
26391;SDS011;14572;43.120;1.178;2023-04-03T20:06:12;7.82;;;2.50;;
26391;SDS011;14572;43.120;1.178;2023-04-03T20:08:39;9.25;;;2.45;;
26391;SDS011;14572;43.120;1.178;2023-04-03T20:11:07;7.43;;;3.25;;
26391;SDS011;14572;43.120;1.178;2023-04-03T20:13:36;10.32;;;3.38;;
26391;SDS011;14572;43.120;1.178;2023-04-03T20:16:04;10.48;;;4.00;;
26391;SDS011;14572;43.120;1.178;2023-04-03T20:18:32;6.10;;;3.42;;
26391;SDS011;14572;43.120;1.178;2023-04-03T20:21:00;8.20;;;4.00;;
26391;SDS011;14572;43.120;1.178;2023-04-03T20:23:27;11.52;;;3.50;;
26391;SDS011;14572;43.120;1.178;2023-04-03T20:25:56;9.07;;;3.55;;
26391;SDS011;14572;43.120;1.178;2023-04-03T20:28:24;6.13;;;2.90;;
26391;SDS011;14572;43.120;1.178;2023-04-03T20:30:53;8.43;;;2.83;;
26391;SDS011;14572;43.120;1.178;2023-04-03T20:33:21;5.65;;;2.40;;
26391;SDS011;14572;43.120;1.178;2023-04-03T20:35:50;7.95;;;2.20;;
26391;SDS011;14572;43.120;1.178;2023-04-03T20:38:18;2.55;;;1.80;;
26391;SDS011;14572;43.120;1.178;2023-04-03T20:40:45;5.00;;;2.05;;
26391;SDS011;14572;43.120;1.178;2023-04-03T20:43:12;4.72;;;1.88;;
26391;SDS011;14572;43.120;1.178;2023-04-03T20:45:39;5.43;;;2.25;;
26391;SDS011;14572;43.120;1.178;2023-04-03T20:48:08;3.20;;;1.92;;
26391;SDS011;14572;43.120;1.178;2023-04-03T20:50:37;8.00;;;2.60;;
26391;SDS011;14572;43.120;1.178;2023-04-03T20:53:05;5.97;;;2.35;;
26391;SDS011;14572;43.120;1.178;2023-04-03T20:55:32;3.67;;;2.00;;
26391;SDS011;14572;43.120;1.178;2023-04-03T20:57:59;6.13;;;2.33;;
26391;SDS011;14572;43.120;1.178;2023-04-03T21:00:26;5.82;;;2.08;;